Cripple Creek, Colorado
Current Conditions -  °F | °C
As of 10:56 AM on Thursday 30 Oct 2014 (Local Time) from KCWN Reporting Station
Clear Clear  
Wind Chill: 51°   Ceiling: Unl
Heat Index: 51°   Visibility: 10mi
Dew Point: 23°   Wind: 8mph
Humidity: 34%   Direction: 110°ESE
Pressure: 30.41"   Gusts: NA
Location:  38.75°N, 105.18°W
Report Text: KCWN 301656Z AUTO 11007KT 10SM CLR 10/M05 A3041 RMK AO2 SLP263 T01031052
Loading
Personal Weather Stations






























Interactive Weather Map
Tropical Storm Tracking
New forecast layout! Learn more

10-Day Weather Forecast

Advertisements
Track Severe Weather on mobile